Time;durP1;ratioP1;P1;durP2;ratioP2;P2;SDS_P1;SDS_P2;PMS_P1;PMS_P2;Temp;Humidity;BMP_temperature;BMP_pressure;BME280_temperature;BME280_humidity;BME280_pressure;Samples;Min_cycle;Max_cycle;Signal;HPM_P1;HPM_P2
2023/03/18 00:00:33;;;;;;;44.33;19.33;;;;;;;1.16;97.77;95580.53;4972531;28;20708;-68
2023/03/18 00:02:58;;;;;;;49.67;19.43;;;;;;;1.06;98.62;95579.63;4930279;28;20260;-68
2023/03/18 00:05:24;;;;;;;50.00;19.30;;;;;;;1.13;98.55;95575.59;4949682;28;20343;-69
2023/03/18 00:07:49;;;;;;;43.97;18.47;;;;;;;1.34;97.80;95579.00;4961054;28;20742;-68
2023/03/18 00:10:15;;;;;;;51.77;20.03;;;;;;;1.34;97.45;95568.66;4980211;28;20644;-68
2023/03/18 00:12:41;;;;;;;67.10;25.67;;;;;;;1.49;97.82;95568.34;4959477;28;20291;-68
2023/03/18 00:15:08;;;;;;;59.60;23.37;;;;;;;1.49;97.62;95576.06;4938081;28;20243;-68
2023/03/18 00:17:34;;;;;;;65.17;23.80;;;;;;;1.38;96.73;95561.50;4932049;28;20248;-67
2023/03/18 00:20:04;;;;;;;64.80;25.47;;;;;;;1.40;97.70;95561.38;4964359;28;20241;-66
2023/03/18 00:22:32;;;;;;;73.23;27.23;;;;;;;1.30;97.94;95554.41;4960891;28;20360;-67
2023/03/18 00:24:57;;;;;;;68.70;26.80;;;;;;;1.28;98.49;95556.31;4929071;29;20233;-67
2023/03/18 00:27:23;;;;;;;66.33;24.80;;;;;;;1.21;98.19;95557.75;4941338;28;20276;-68
2023/03/18 00:29:49;;;;;;;56.53;22.90;;;;;;;1.24;98.39;95557.47;4944909;28;20241;-67
2023/03/18 00:32:15;;;;;;;51.93;21.20;;;;;;;1.44;97.61;95555.00;4918910;28;20699;-67
2023/03/18 00:34:40;;;;;;;53.37;20.67;;;;;;;1.43;96.79;95554.22;4940910;28;20239;-67
2023/03/18 00:37:07;;;;;;;54.83;21.53;;;;;;;1.22;97.10;95549.06;4965129;28;20756;-67
2023/03/18 00:39:32;;;;;;;45.10;19.23;;;;;;;1.26;97.55;95545.31;4947315;28;20233;-67
2023/03/18 00:41:58;;;;;;;43.47;18.67;;;;;;;1.30;97.47;95541.53;4952348;28;20247;-66
2023/03/18 00:44:27;;;;;;;42.30;18.37;;;;;;;1.31;97.14;95537.19;4977494;28;20233;-68
2023/03/18 00:46:52;;;;;;;41.70;18.37;;;;;;;1.38;97.49;95540.06;4963222;28;20535;-67
2023/03/18 00:49:18;;;;;;;41.70;18.10;;;;;;;1.38;97.04;95527.16;4942767;28;20699;-67
2023/03/18 00:51:44;;;;;;;39.33;17.10;;;;;;;1.38;97.31;95526.22;4924412;28;20253;-67
2023/03/18 00:54:24;;;;;;;40.47;16.13;;;;;;;1.18;98.27;95526.25;5078478;27;20598;-67
2023/03/18 00:56:49;;;;;;;36.00;16.17;;;;;;;1.19;98.44;95527.91;5049563;28;20241;-66
2023/03/18 00:59:15;;;;;;;36.57;15.73;;;;;;;1.21;98.16;95520.84;5029693;28;20237;-67
2023/03/18 01:01:40;;;;;;;39.87;16.53;;;;;;;1.22;97.97;95520.72;5044552;28;20235;-67
2023/03/18 01:04:06;;;;;;;43.37;16.47;;;;;;;1.23;97.83;95514.63;5034334;28;20861;-68
2023/03/18 01:06:33;;;;;;;40.33;17.63;;;;;;;1.17;97.70;95514.31;5024253;28;20230;-67
2023/03/18 01:09:00;;;;;;;38.20;16.83;;;;;;;1.04;98.25;95522.25;5034426;28;20233;-67
2023/03/18 01:11:25;;;;;;;37.53;17.37;;;;;;;1.06;98.41;95511.81;5031220;28;20282;-69
2023/03/18 01:13:51;;;;;;;42.93;17.00;;;;;;;0.95;98.42;95507.56;5030881;28;20230;-67
2023/03/18 01:16:18;;;;;;;40.03;17.07;;;;;;;0.61;99.77;95503.53;5020449;28;20228;-66
2023/03/18 01:18:43;;;;;;;43.07;18.60;;;;;;;0.86;99.58;95504.91;5045254;28;20481;-66
2023/03/18 01:21:09;;;;;;;44.60;18.30;;;;;;;1.05;98.47;95510.19;5017211;28;21005;-67
2023/03/18 01:23:35;;;;;;;45.67;19.47;;;;;;;1.01;97.27;95507.03;5016692;28;20241;-66
2023/03/18 01:26:01;;;;;;;48.87;20.37;;;;;;;0.83;98.65;95508.56;5033066;28;20663;-66
2023/03/18 01:28:27;;;;;;;52.50;20.60;;;;;;;0.87;98.33;95499.63;5021561;28;20256;-67
2023/03/18 01:30:54;;;;;;;48.27;19.93;;;;;;;0.87;98.61;95504.78;5022577;28;20776;-67
2023/03/18 01:33:19;;;;;;;48.87;20.10;;;;;;;0.94;98.74;95502.50;5044127;28;20284;-68
2023/03/18 01:35:46;;;;;;;44.97;18.73;;;;;;;0.92;98.50;95500.06;5033340;28;20230;-68
2023/03/18 01:38:12;;;;;;;47.43;18.47;;;;;;;0.79;98.84;95506.38;5051609;28;20256;-67
2023/03/18 01:40:39;;;;;;;43.17;18.17;;;;;;;0.64;99.82;95498.13;5029858;28;20359;-67
2023/03/18 01:43:13;;;;;;;43.07;18.20;;;;;;;0.64;99.50;95503.28;5030705;28;20232;-67
2023/03/18 01:45:41;;;;;;;45.93;18.03;;;;;;;0.62;99.45;95493.09;5032956;28;20317;-67
2023/03/18 01:48:12;;;;;;;44.63;18.43;;;;;;;0.66;99.34;95497.06;5038522;28;20229;-67
2023/03/18 01:50:37;;;;;;;48.60;19.70;;;;;;;0.72;99.75;95498.31;5032404;28;20233;-67
2023/03/18 01:53:09;;;;;;;59.70;21.97;;;;;;;0.61;100.00;95493.22;5040258;28;20230;-67
2023/03/18 01:55:35;;;;;;;61.47;24.63;;;;;;;0.67;100.00;95492.72;5046944;28;20217;-66
2023/03/18 01:58:02;;;;;;;60.17;23.57;;;;;;;0.84;99.31;95497.31;5029464;28;20233;-67
2023/03/18 02:00:27;;;;;;;64.90;25.43;;;;;;;0.90;99.29;95488.25;5049837;28;20233;-67
2023/03/18 02:02:57;;;;;;;68.73;25.67;;;;;;;0.91;99.11;95490.69;5011304;28;20236;-66
2023/03/18 02:05:23;;;;;;;63.77;26.03;;;;;;;1.03;98.70;95478.56;5004923;28;20421;-67
2023/03/18 02:07:50;;;;;;;63.10;25.23;;;;;;;0.92;98.91;95487.19;5015118;28;20619;-67
2023/03/18 02:10:18;;;;;;;70.67;26.90;;;;;;;0.69;99.28;95481.34;5014351;28;20237;-67
2023/03/18 02:12:49;;;;;;;67.67;26.20;;;;;;;0.69;99.40;95472.81;5015528;28;20235;-67
2023/03/18 02:15:17;;;;;;;68.53;26.53;;;;;;;0.59;99.77;95489.97;5031568;28;20368;-66
2023/03/18 02:17:45;;;;;;;66.73;26.07;;;;;;;0.62;99.43;95474.28;5009140;28;20311;-67
2023/03/18 02:20:17;;;;;;;64.70;26.23;;;;;;;0.60;99.14;95478.69;5030544;28;20304;-67
2023/03/18 02:22:52;;;;;;;65.63;26.97;;;;;;;0.64;99.69;95475.78;5026183;28;20234;-67
2023/03/18 02:25:32;;;;;;;66.83;27.83;;;;;;;0.48;100.00;95479.69;5021442;28;20233;-68
2023/03/18 02:28:03;;;;;;;72.67;27.77;;;;;;;0.33;100.00;95475.81;5026547;28;20629;-66
2023/03/18 02:30:51;;;;;;;69.83;26.80;;;;;;;0.43;100.00;95480.06;5015734;28;20260;-68
2023/03/18 02:33:17;;;;;;;62.43;26.00;;;;;;;0.49;100.00;95482.16;5027115;28;20256;-68
2023/03/18 02:35:46;;;;;;;69.07;26.57;;;;;;;0.62;99.76;95484.56;4998678;28;20225;-67
2023/03/18 02:38:11;;;;;;;68.70;27.10;;;;;;;0.37;99.86;95482.34;5019879;28;20241;-67
2023/03/18 02:40:38;;;;;;;74.77;28.07;;;;;;;0.56;99.63;95487.63;5019056;28;20229;-68
2023/03/18 02:43:17;;;;;;;75.97;29.67;;;;;;;0.40;99.71;95480.34;5017760;28;20308;-68
2023/03/18 02:46:12;;;;;;;69.33;27.90;;;;;;;0.25;100.00;95481.56;5031603;28;20261;-68
2023/03/18 02:48:39;;;;;;;68.67;27.27;;;;;;;0.39;100.00;95473.56;5031388;28;20233;-68
2023/03/18 02:51:06;;;;;;;71.47;28.13;;;;;;;0.25;100.00;95476.44;5013350;28;20332;-68
2023/03/18 02:53:31;;;;;;;73.20;27.43;;;;;;;0.35;99.67;95477.31;5016420;28;20269;-67
2023/03/18 02:55:57;;;;;;;66.13;26.80;;;;;;;0.31;100.00;95475.13;5001932;28;20256;-68
2023/03/18 02:58:22;;;;;;;71.47;27.13;;;;;;;0.20;100.00;95477.72;5018381;28;20703;-68
2023/03/18 03:00:48;;;;;;;69.20;28.33;;;;;;;-0.04;100.00;95475.34;5013669;28;20225;-68
2023/03/18 03:03:13;;;;;;;68.63;28.50;;;;;;;0.07;100.00;95469.38;5015247;28;20841;-68
2023/03/18 03:05:38;;;;;;;76.40;28.83;;;;;;;-0.05;100.00;95471.16;5012157;28;20295;-68
2023/03/18 03:08:04;;;;;;;72.47;28.33;;;;;;;0.05;100.00;95478.97;5015039;28;20251;-68
2023/03/18 03:10:30;;;;;;;64.03;26.50;;;;;;;0.03;100.00;95471.34;5001765;28;20232;-68
2023/03/18 03:12:55;;;;;;;63.10;25.37;;;;;;;0.11;100.00;95484.44;5015456;28;20228;-68
2023/03/18 03:15:21;;;;;;;60.67;24.97;;;;;;;0.12;100.00;95480.91;4998668;28;20823;-68
2023/03/18 03:17:47;;;;;;;61.10;24.80;;;;;;;0.13;100.00;95485.13;5016174;28;20233;-68
2023/03/18 03:20:14;;;;;;;56.07;23.50;;;;;;;0.01;100.00;95480.97;5027710;28;20226;-68
2023/03/18 03:22:40;;;;;;;55.90;23.00;;;;;;;0.05;100.00;95479.75;5011607;28;20234;-68
2023/03/18 03:25:08;;;;;;;52.57;22.33;;;;;;;0.09;99.47;95488.91;5003322;28;20230;-67
2023/03/18 03:27:34;;;;;;;53.13;22.03;;;;;;;0.08;99.86;95487.25;5007810;28;20226;-68
2023/03/18 03:29:59;;;;;;;52.90;20.70;;;;;;;0.10;99.81;95493.09;5002829;28;20237;-68
2023/03/18 03:32:25;;;;;;;49.83;20.63;;;;;;;0.08;99.42;95491.56;5022018;28;20665;-68
2023/03/18 03:34:51;;;;;;;47.63;20.13;;;;;;;-0.04;99.83;95489.03;5025014;28;20229;-67
2023/03/18 03:37:16;;;;;;;46.83;19.57;;;;;;;-0.13;99.98;95497.50;5008280;28;20230;-68
2023/03/18 03:39:43;;;;;;;46.63;19.37;;;;;;;-0.10;99.76;95496.44;5018861;28;20234;-68
2023/03/18 03:42:09;;;;;;;47.17;19.47;;;;;;;-0.04;99.92;95495.94;5033371;28;20917;-68
2023/03/18 03:44:35;;;;;;;43.33;19.90;;;;;;;-0.11;99.79;95500.75;5034924;28;20243;-68
2023/03/18 03:47:00;;;;;;;48.27;20.30;;;;;;;-0.10;100.00;95497.25;5016260;28;20218;-68
2023/03/18 03:49:26;;;;;;;46.73;19.47;;;;;;;-0.17;100.00;95500.44;5031878;28;21106;-67
2023/03/18 03:51:51;;;;;;;43.20;18.67;;;;;;;-0.19;100.00;95497.16;5001678;28;20233;-68
2023/03/18 03:54:18;;;;;;;46.33;18.87;;;;;;;-0.23;100.00;95496.56;5033236;28;20675;-68
2023/03/18 03:56:44;;;;;;;44.83;18.40;;;;;;;-0.07;99.62;95493.59;5008732;28;20367;-68
2023/03/18 03:59:10;;;;;;;40.87;17.90;;;;;;;0.06;98.73;95501.19;5023912;28;20242;-68
2023/03/18 04:01:36;;;;;;;49.43;18.90;;;;;;;-0.19;98.78;95504.88;5014215;28;20263;-68
2023/03/18 04:04:01;;;;;;;42.10;19.00;;;;;;;-0.12;98.93;95500.88;5034025;28;20325;-68
2023/03/18 04:06:28;;;;;;;43.53;19.53;;;;;;;0.01;98.25;95498.97;5023598;28;20237;-67
2023/03/18 04:08:53;;;;;;;48.30;19.20;;;;;;;-0.02;98.47;95504.34;5015413;28;20236;-68
2023/03/18 04:11:19;;;;;;;48.80;19.70;;;;;;;-0.12;99.08;95506.81;5030232;28;20238;-71
2023/03/18 04:13:44;;;;;;;44.47;18.93;;;;;;;-0.21;99.47;95507.56;5022374;28;20726;-69
2023/03/18 04:16:10;;;;;;;50.27;20.37;;;;;;;-0.02;98.71;95512.88;5016280;28;20229;-68
2023/03/18 04:18:35;;;;;;;49.50;20.53;;;;;;;-0.13;98.77;95512.09;5029968;28;20230;-67
2023/03/18 04:21:01;;;;;;;52.23;20.30;;;;;;;-0.07;98.71;95517.56;5015049;28;20249;-68
2023/03/18 04:23:26;;;;;;;51.07;20.03;;;;;;;-0.17;98.99;95521.00;5034210;28;20241;-68
2023/03/18 04:25:52;;;;;;;51.07;20.30;;;;;;;-0.05;98.25;95528.56;4992084;28;20238;-69
2023/03/18 04:28:17;;;;;;;55.17;21.13;;;;;;;-0.17;98.75;95526.94;4991229;28;20329;-68
2023/03/18 04:30:43;;;;;;;51.23;20.57;;;;;;;-0.04;98.34;95529.38;4994261;28;20310;-67
2023/03/18 04:33:08;;;;;;;51.63;21.23;;;;;;;-0.16;98.53;95533.72;5018323;28;20234;-68
2023/03/18 04:35:34;;;;;;;54.00;21.27;;;;;;;-0.31;99.36;95532.34;5018896;28;20254;-69
2023/03/18 04:38:00;;;;;;;49.20;20.80;;;;;;;-0.16;98.74;95535.47;4996417;28;20232;-69
2023/03/18 04:40:25;;;;;;;50.90;20.40;;;;;;;-0.02;97.90;95542.94;4991374;28;20262;-68
2023/03/18 04:42:51;;;;;;;52.07;21.00;;;;;;;-0.06;98.10;95544.94;5003527;28;20229;-69
2023/03/18 04:45:16;;;;;;;52.90;20.97;;;;;;;-0.10;97.63;95533.28;5001670;28;20316;-68
2023/03/18 04:47:42;;;;;;;49.40;21.33;;;;;;;-0.06;98.12;95546.69;5010121;28;20238;-68
2023/03/18 04:50:10;;;;;;;61.13;22.13;;;;;;;-0.07;97.66;95550.19;5025815;28;20245;-69
2023/03/18 04:52:39;;;;;;;54.03;22.83;;;;;;;-0.18;98.70;95551.03;5002585;28;20264;-69
2023/03/18 04:55:05;;;;;;;51.00;21.57;;;;;;;-0.09;98.22;95550.31;5010555;28;20312;-69
2023/03/18 04:57:31;;;;;;;49.87;22.27;;;;;;;-0.41;100.00;95553.75;5011085;28;20237;-68
2023/03/18 04:59:57;;;;;;;57.67;22.67;;;;;;;-0.30;100.00;95551.16;4992591;28;20731;-68
2023/03/18 05:02:23;;;;;;;53.03;22.77;;;;;;;-0.20;100.00;95557.25;5000734;28;20308;-69
2023/03/18 05:04:48;;;;;;;52.10;21.50;;;;;;;-0.15;99.96;95555.97;5017578;28;20232;-67
2023/03/18 05:07:14;;;;;;;49.33;21.37;;;;;;;0.05;99.59;95551.81;5017397;28;20242;-69
2023/03/18 05:09:40;;;;;;;48.13;21.23;;;;;;;0.21;98.52;95557.41;5032416;28;20230;-68
2023/03/18 05:12:09;;;;;;;48.40;20.33;;;;;;;0.29;98.08;95549.06;5015283;28;20671;-69
2023/03/18 05:14:35;;;;;;;51.27;20.53;;;;;;;0.33;97.79;95542.75;5023268;28;20313;-68
2023/03/18 05:17:01;;;;;;;46.20;20.13;;;;;;;0.31;98.22;95547.19;4991601;28;20230;-68
2023/03/18 05:19:27;;;;;;;49.80;21.03;;;;;;;0.38;98.03;95543.19;5003162;28;20237;-69
2023/03/18 05:21:52;;;;;;;48.63;20.90;;;;;;;0.56;98.61;95541.72;4993540;28;20276;-69
2023/03/18 05:24:18;;;;;;;50.53;21.73;;;;;;;0.55;98.54;95542.66;5003773;28;20238;-67
2023/03/18 05:26:43;;;;;;;47.07;20.63;;;;;;;0.74;96.95;95544.56;5031653;28;20226;-69
2023/03/18 05:29:09;;;;;;;49.20;20.90;;;;;;;0.81;97.02;95545.69;5026861;28;20234;-69
2023/03/18 05:31:35;;;;;;;43.00;18.87;;;;;;;1.05;96.07;95536.75;4986010;28;20234;-68
2023/03/18 05:34:01;;;;;;;43.33;18.60;;;;;;;1.64;93.09;95534.34;5012582;28;20325;-66
2023/03/18 05:36:28;;;;;;;46.80;18.53;;;;;;;1.34;93.25;95544.66;5010834;28;20664;-68
2023/03/18 05:38:53;;;;;;;40.47;17.40;;;;;;;0.98;94.49;95543.34;5019817;28;20230;-68
2023/03/18 05:41:19;;;;;;;35.17;15.93;;;;;;;1.02;95.51;95546.50;5033662;28;20279;-69
2023/03/18 05:43:45;;;;;;;41.47;18.37;;;;;;;1.15;95.47;95550.53;5033382;28;20678;-68
2023/03/18 05:46:10;;;;;;;37.23;16.87;;;;;;;1.25;96.18;95551.41;5019807;28;20226;-68
2023/03/18 05:48:36;;;;;;;37.77;17.33;;;;;;;1.22;96.12;95561.13;5009413;28;20264;-67
2023/03/18 05:51:03;;;;;;;43.33;18.33;;;;;;;1.49;95.33;95558.84;5035449;28;20607;-68
2023/03/18 05:53:28;;;;;;;42.67;19.87;;;;;;;1.41;95.92;95558.66;5015324;28;20324;-68
2023/03/18 05:55:55;;;;;;;52.80;22.20;;;;;;;1.50;94.22;95563.06;5031568;28;20234;-67
2023/03/18 05:58:20;;;;;;;51.30;23.10;;;;;;;1.75;92.73;95566.94;5022763;28;20270;-68
2023/03/18 06:00:46;;;;;;;51.13;23.07;;;;;;;1.39;94.92;95565.72;5015058;28;20245;-68
2023/03/18 06:03:11;;;;;;;52.30;23.67;;;;;;;1.48;94.76;95571.88;5016209;28;20226;-68
2023/03/18 06:05:37;;;;;;;56.67;24.87;;;;;;;1.55;95.59;95567.84;5006692;28;20230;-68
2023/03/18 06:08:02;;;;;;;64.70;27.07;;;;;;;1.37;94.51;95565.03;5025233;28;20371;-67
2023/03/18 06:10:28;;;;;;;51.93;21.47;;;;;;;1.55;92.44;95567.84;5030171;28;20321;-69
2023/03/18 06:12:54;;;;;;;56.70;25.53;;;;;;;1.81;93.70;95574.19;5043034;28;20240;-69
2023/03/18 06:15:20;;;;;;;52.43;23.37;;;;;;;2.04;92.21;95568.69;5005985;28;20222;-69
2023/03/18 06:17:46;;;;;;;53.10;22.37;;;;;;;2.08;91.30;95571.81;5032445;28;20287;-68
2023/03/18 06:20:12;;;;;;;51.33;22.10;;;;;;;2.03;91.55;95572.22;5035003;28;20738;-68
2023/03/18 06:22:38;;;;;;;48.17;21.23;;;;;;;2.09;91.25;95565.72;5002488;28;21004;-67
2023/03/18 06:25:06;;;;;;;47.20;20.27;;;;;;;2.18;89.29;95572.66;5030489;28;20225;-67
2023/03/18 06:27:32;;;;;;;46.83;20.97;;;;;;;2.37;90.43;95567.53;5018414;28;20321;-67
2023/03/18 06:30:01;;;;;;;45.97;20.73;;;;;;;2.40;89.77;95566.44;5009568;28;20390;-67
2023/03/18 06:32:27;;;;;;;49.37;19.80;;;;;;;2.38;90.40;95561.44;5030625;28;20308;-68
2023/03/18 06:34:52;;;;;;;49.17;20.90;;;;;;;2.59;89.08;95562.13;5036333;28;20301;-68
2023/03/18 06:37:18;;;;;;;47.40;21.50;;;;;;;2.75;88.30;95561.56;5007764;28;20248;-68
2023/03/18 06:39:43;;;;;;;42.97;19.63;;;;;;;2.72;87.35;95547.16;5033846;28;20230;-68
2023/03/18 06:42:09;;;;;;;43.10;19.80;;;;;;;2.68;87.11;95550.16;5023276;28;20230;-68
2023/03/18 06:44:35;;;;;;;45.90;20.10;;;;;;;2.85;87.44;95546.06;5033338;28;20797;-67
2023/03/18 06:47:01;;;;;;;47.17;20.33;;;;;;;3.06;85.96;95550.13;5032424;28;20225;-69
2023/03/18 06:49:27;;;;;;;48.47;20.67;;;;;;;3.21;86.15;95551.34;5041863;28;20230;-68
2023/03/18 06:51:53;;;;;;;48.90;22.17;;;;;;;3.69;85.95;95548.59;5017428;28;20613;-67
2023/03/18 06:54:19;;;;;;;51.43;23.20;;;;;;;3.43;84.68;95552.78;5031215;28;20264;-66
2023/03/18 06:56:45;;;;;;;49.87;22.60;;;;;;;3.64;83.56;95549.97;5009183;28;20311;-68
2023/03/18 06:59:11;;;;;;;50.87;23.50;;;;;;;3.28;84.94;95551.59;5018796;28;20710;-67
2023/03/18 07:01:36;;;;;;;55.10;23.80;;;;;;;3.22;84.92;95547.81;5016312;28;20306;-68
2023/03/18 07:04:02;;;;;;;55.17;24.37;;;;;;;3.11;87.89;95547.94;5020583;28;20635;-68
2023/03/18 07:06:29;;;;;;;53.77;22.83;;;;;;;3.47;85.69;95551.53;5006168;28;20738;-68
2023/03/18 07:08:55;;;;;;;51.47;23.13;;;;;;;3.80;84.25;95545.81;5038555;28;20229;-68
2023/03/18 07:11:20;;;;;;;47.17;22.60;;;;;;;4.02;82.13;95553.22;5033184;28;20226;-69
2023/03/18 07:13:46;;;;;;;50.87;23.60;;;;;;;4.04;83.22;95545.31;5014528;28;20237;-69
2023/03/18 07:16:11;;;;;;;52.93;23.47;;;;;;;3.77;83.79;95546.13;5035086;28;20718;-68
2023/03/18 07:18:37;;;;;;;51.93;23.13;;;;;;;3.95;85.03;95547.00;5021419;28;20256;-68
2023/03/18 07:21:03;;;;;;;52.20;23.63;;;;;;;4.37;85.22;95546.50;5033566;28;20222;-68
2023/03/18 07:23:29;;;;;;;52.33;22.80;;;;;;;4.38;84.01;95548.13;5012714;28;20291;-68
2023/03/18 07:25:54;;;;;;;50.17;23.17;;;;;;;4.22;84.00;95543.59;5027725;28;20222;-67
2023/03/18 07:28:20;;;;;;;56.10;23.83;;;;;;;4.60;83.83;95547.69;5019124;28;20344;-67
2023/03/18 07:30:45;;;;;;;58.53;25.37;;;;;;;4.56;83.11;95547.16;5031753;28;20218;-67
2023/03/18 07:33:11;;;;;;;59.13;24.83;;;;;;;4.73;83.36;95556.72;5031868;28;20615;-67
2023/03/18 07:35:39;;;;;;;67.07;27.00;;;;;;;4.84;81.72;95560.88;5007916;28;20249;-67
2023/03/18 07:38:05;;;;;;;58.53;26.60;;;;;;;4.73;81.31;95551.53;5034320;28;20375;-68
2023/03/18 07:40:31;;;;;;;57.20;25.80;;;;;;;4.26;82.15;95557.03;5030799;28;20266;-66
2023/03/18 07:42:56;;;;;;;52.03;24.23;;;;;;;4.54;83.36;95550.84;5031122;28;20245;-67
2023/03/18 07:45:22;;;;;;;49.07;22.77;;;;;;;4.79;83.72;95550.13;5015672;28;20734;-68
2023/03/18 07:47:48;;;;;;;46.37;22.20;;;;;;;4.72;82.03;95547.34;5023856;28;20839;-68
2023/03/18 07:50:13;;;;;;;45.90;20.83;;;;;;;4.68;81.83;95548.56;5017523;28;20279;-67
2023/03/18 07:52:39;;;;;;;46.80;20.37;;;;;;;4.78;81.53;95550.31;5022928;28;20241;-67
2023/03/18 07:55:04;;;;;;;45.77;20.03;;;;;;;4.69;80.81;95550.22;5015330;28;20625;-68
2023/03/18 07:57:30;;;;;;;45.27;20.83;;;;;;;4.86;81.31;95552.94;5021412;28;20238;-68
2023/03/18 07:59:55;;;;;;;38.73;18.70;;;;;;;4.88;81.02;95553.59;5037826;28;20236;-68
2023/03/18 08:02:22;;;;;;;38.90;18.13;;;;;;;4.75;81.68;95552.19;5012925;28;20730;-68
2023/03/18 08:04:47;;;;;;;44.57;21.07;;;;;;;4.48;82.28;95551.47;5014467;28;20233;-68
2023/03/18 08:07:13;;;;;;;44.07;21.03;;;;;;;4.88;82.15;95544.06;5004018;28;20228;-68
2023/03/18 08:09:38;;;;;;;46.90;20.83;;;;;;;4.97;81.39;95547.56;5023911;28;20245;-68
2023/03/18 08:12:04;;;;;;;43.03;20.17;;;;;;;5.02;80.99;95546.13;5012747;28;20590;-68
2023/03/18 08:14:30;;;;;;;46.53;20.10;;;;;;;5.16;82.20;95542.19;5032739;28;20888;-68
2023/03/18 08:16:55;;;;;;;41.87;19.70;;;;;;;5.27;79.77;95547.94;5016916;28;20305;-68
2023/03/18 08:19:21;;;;;;;44.83;21.43;;;;;;;5.13;80.86;95548.50;4994948;28;20637;-68
2023/03/18 08:21:46;;;;;;;46.00;20.90;;;;;;;5.03;80.56;95552.13;5013953;28;20244;-68
2023/03/18 08:24:12;;;;;;;47.33;21.17;;;;;;;4.80;80.87;95562.13;5007087;28;20673;-68
2023/03/18 08:26:37;;;;;;;46.73;21.23;;;;;;;4.78;81.13;95554.50;5015485;28;20248;-65
2023/03/18 08:29:03;;;;;;;46.30;20.60;;;;;;;5.13;81.24;95548.50;5024688;28;20273;-69
2023/03/18 08:31:28;;;;;;;45.03;21.17;;;;;;;4.99;81.01;95546.41;5033651;28;20613;-70
2023/03/18 08:33:55;;;;;;;43.60;21.17;;;;;;;5.36;79.86;95543.59;5015088;28;20275;-70
2023/03/18 08:36:21;;;;;;;43.70;20.23;;;;;;;5.49;79.66;95546.63;5013577;28;20234;-69
2023/03/18 08:38:46;;;;;;;46.23;21.13;;;;;;;5.56;79.04;95549.41;5032579;28;20233;-69
2023/03/18 08:41:12;;;;;;;41.23;18.70;;;;;;;5.49;78.72;95540.63;5012614;28;20333;-69
2023/03/18 08:43:38;;;;;;;38.00;16.97;;;;;;;5.79;79.48;95545.31;4998216;28;20705;-68
2023/03/18 08:46:04;;;;;;;34.83;17.30;;;;;;;5.67;77.00;95549.97;5033584;28;20232;-68
2023/03/18 08:48:29;;;;;;;35.10;16.90;;;;;;;5.52;76.74;95548.91;5013249;28;20271;-68
2023/03/18 08:50:55;;;;;;;36.80;17.43;;;;;;;5.81;77.79;95538.19;4999471;28;20260;-69
2023/03/18 08:53:20;;;;;;;34.63;17.53;;;;;;;5.98;76.34;95545.13;5026791;28;20618;-69
2023/03/18 08:55:46;;;;;;;31.93;14.97;;;;;;;5.97;75.37;95543.50;5026104;28;20292;-68
2023/03/18 08:58:12;;;;;;;29.57;15.57;;;;;;;6.08;75.25;95548.41;5014392;28;20229;-69
2023/03/18 09:00:39;;;;;;;34.03;15.63;;;;;;;6.27;74.92;95555.13;5032051;28;20365;-69
2023/03/18 09:03:08;;;;;;;31.30;15.17;;;;;;;6.16;74.40;95553.66;5019566;28;20629;-69
2023/03/18 09:05:34;;;;;;;31.57;14.80;;;;;;;6.33;72.97;95547.50;5033198;28;20317;-69
2023/03/18 09:08:00;;;;;;;33.93;17.03;;;;;;;6.65;73.90;95547.59;5001229;28;20229;-68
2023/03/18 09:10:25;;;;;;;31.47;14.00;;;;;;;6.63;72.25;95552.16;5026742;28;20234;-68
2023/03/18 09:12:51;;;;;;;28.47;13.33;;;;;;;6.72;71.49;95551.19;5001845;28;20229;-70
2023/03/18 09:15:20;;;;;;;27.50;13.03;;;;;;;6.94;70.09;95552.34;5009442;28;20769;-68
2023/03/18 09:17:47;;;;;;;23.73;11.60;;;;;;;7.15;68.98;95551.88;5005053;28;20275;-69
2023/03/18 09:20:15;;;;;;;26.00;12.60;;;;;;;7.11;66.88;95555.78;5034466;28;20763;-68
2023/03/18 09:22:42;;;;;;;24.70;12.60;;;;;;;7.39;67.99;95554.47;5009624;28;20230;-68
2023/03/18 09:25:08;;;;;;;23.10;11.73;;;;;;;7.48;65.95;95551.69;5010338;28;21040;-69
2023/03/18 09:27:34;;;;;;;22.53;11.33;;;;;;;7.57;66.49;95549.06;5016375;28;20371;-69
2023/03/18 09:29:59;;;;;;;20.63;10.27;;;;;;;7.89;66.39;95555.00;5034821;28;20221;-69
2023/03/18 09:32:25;;;;;;;21.57;10.47;;;;;;;7.74;65.84;95550.69;5031576;28;20221;-70
2023/03/18 09:34:51;;;;;;;13.70;7.03;;;;;;;7.72;63.64;95556.03;5016203;28;20240;-69
2023/03/18 09:37:17;;;;;;;12.63;7.03;;;;;;;7.90;62.89;95555.84;5016836;28;20234;-68
2023/03/18 09:39:43;;;;;;;14.70;7.60;;;;;;;7.66;62.42;95545.47;5038746;28;20717;-69
2023/03/18 09:42:33;;;;;;;14.17;7.97;;;;;;;7.65;62.93;95551.66;5037738;28;20233;-68
2023/03/18 09:45:00;;;;;;;15.13;7.87;;;;;;;7.97;63.23;95546.38;5052135;28;20230;-69
2023/03/18 09:47:43;;;;;;;15.00;7.90;;;;;;;8.21;62.74;95543.66;5016739;28;20234;-69
2023/03/18 09:50:09;;;;;;;12.67;6.30;;;;;;;7.91;61.89;95539.19;5034058;28;20237;-69
2023/03/18 09:52:58;;;;;;;11.47;5.93;;;;;;;8.06;63.55;95535.75;5029795;28;20645;-69
2023/03/18 09:55:29;;;;;;;12.40;6.70;;;;;;;8.28;62.30;95539.44;5032557;28;20807;-69
2023/03/18 09:57:57;;;;;;;10.10;5.30;;;;;;;8.29;61.11;95543.66;5026862;28;20317;-69
2023/03/18 10:00:35;;;;;;;11.53;6.20;;;;;;;8.40;61.55;95534.66;5017127;28;20683;-69
2023/03/18 10:03:40;;;;;;;10.73;6.10;;;;;;;8.31;61.24;95541.69;5021034;28;20229;-69
2023/03/18 10:06:11;;;;;;;13.60;6.80;;;;;;;8.51;62.01;95547.28;5048899;28;20222;-69
2023/03/18 10:08:44;;;;;;;11.53;5.63;;;;;;;8.55;60.50;95538.94;5010198;28;20331;-68
2023/03/18 10:11:40;;;;;;;12.83;6.70;;;;;;;8.81;60.06;95541.25;5021772;28;20230;-69
2023/03/18 10:14:41;;;;;;;12.37;5.93;;;;;;;9.01;58.49;95534.56;5003172;28;20288;-68
2023/03/18 10:17:12;;;;;;;12.23;5.80;;;;;;;9.13;59.15;95534.97;5008537;28;20237;-69
2023/03/18 10:19:38;;;;;;;12.27;6.10;;;;;;;8.74;58.63;95548.16;5028905;28;20480;-69
2023/03/18 10:22:16;;;;;;;11.67;6.00;;;;;;;8.73;59.76;95542.13;4995847;28;20765;-68
2023/03/18 10:25:05;;;;;;;10.93;6.20;;;;;;;8.54;59.38;95537.34;5020827;28;20807;-68
2023/03/18 10:27:48;;;;;;;14.90;6.40;;;;;;;8.64;60.82;95542.34;5015723;28;20264;-69
2023/03/18 10:30:28;;;;;;;8.20;4.90;;;;;;;8.89;56.51;95540.38;4989333;28;20238;-69
2023/03/18 10:33:16;;;;;;;7.73;5.07;;;;;;;9.08;55.65;95534.69;5021918;28;20232;-69
2023/03/18 10:35:47;;;;;;;9.17;5.17;;;;;;;9.04;54.71;95538.63;5042657;28;20320;-69
2023/03/18 10:38:35;;;;;;;8.73;5.10;;;;;;;9.01;55.58;95533.75;5025052;28;20233;-69
2023/03/18 10:41:00;;;;;;;9.40;4.70;;;;;;;9.49;52.97;95531.56;5013821;28;20462;-69
2023/03/18 10:43:30;;;;;;;9.00;5.10;;;;;;;9.72;53.29;95533.31;5013693;28;20796;-70
2023/03/18 10:46:03;;;;;;;10.70;5.73;;;;;;;9.65;52.22;95529.78;5020468;28;21009;-69
2023/03/18 10:48:37;;;;;;;9.63;5.00;;;;;;;9.51;50.37;95528.75;5019353;28;20258;-69
2023/03/18 10:51:33;;;;;;;9.30;5.07;;;;;;;9.93;50.62;95523.78;5015756;28;20253;-69
2023/03/18 10:54:24;;;;;;;10.03;5.30;;;;;;;9.85;50.64;95523.84;5022720;28;20252;-69
2023/03/18 10:56:51;;;;;;;9.40;5.10;;;;;;;9.58;50.06;95526.28;5014356;28;20727;-68
2023/03/18 10:59:17;;;;;;;8.90;4.80;;;;;;;9.78;52.00;95516.91;5006005;28;20226;-68
2023/03/18 11:01:45;;;;;;;6.40;4.10;;;;;;;9.93;48.76;95520.34;5031802;28;20732;-69
2023/03/18 11:04:13;;;;;;;8.70;3.83;;;;;;;10.32;51.10;95520.84;5008860;28;20246;-68
2023/03/18 11:06:54;;;;;;;6.43;3.87;;;;;;;9.55;51.11;95518.78;4999113;28;20340;-70
2023/03/18 11:09:35;;;;;;;6.93;3.70;;;;;;;8.71;52.56;95519.78;5020614;28;20229;-70
2023/03/18 11:12:05;;;;;;;8.33;4.17;;;;;;;8.74;52.56;95522.06;5010707;28;20233;-68
2023/03/18 11:14:31;;;;;;;7.53;4.07;;;;;;;8.58;54.42;95522.97;4999257;28;20257;-69
2023/03/18 11:17:04;;;;;;;10.13;4.17;;;;;;;8.57;54.10;95526.53;5015326;28;20679;-69
2023/03/18 11:19:31;;;;;;;7.33;3.83;;;;;;;8.47;52.08;95525.16;5029269;28;20276;-69
2023/03/18 11:22:01;;;;;;;5.87;3.70;;;;;;;8.67;49.68;95515.88;5018247;28;20240;-70
2023/03/18 11:24:37;;;;;;;8.37;3.83;;;;;;;9.20;48.91;95507.97;5033435;28;20233;-69
2023/03/18 11:27:03;;;;;;;6.47;3.87;;;;;;;9.49;47.88;95515.88;5019254;28;20265;-69